Time,TemperatureF,DewpointF,PressureIn,WindDirection,WindDirectionDegrees,WindSpeedMPH,WindSpeedGustMPH,Humidity,HourlyPrecipIn,Conditions,Clouds,dailyrainin,SoftwareType,DateUTC
2013-10-07 00:01:00,53.1,-2.1,29.96,WNW,293,0.4,1.1,1,0.00,,,0.00,WUHU216HW,2013-10-07 07:01:00,
2013-10-07 00:06:00,52.9,-2.1,29.96,SW,225,0.9,1.6,1,0.00,,,0.00,WUHU216HW,2013-10-07 07:06:00,
2013-10-07 00:11:00,52.9,-2.1,29.97,WSW,248,1.3,1.6,1,0.00,,,0.00,WUHU216HW,2013-10-07 07:11:00,
2013-10-07 00:16:00,52.9,-2.1,29.97,West,270,1.1,2.5,1,0.00,,,0.00,WUHU216HW,2013-10-07 07:16:00,
2013-10-07 00:21:00,53.1,-2.1,29.97,South,180,1.8,2.7,1,0.00,,,0.00,WUHU216HW,2013-10-07 07:21:00,
2013-10-07 00:26:00,53.6,-1.6,29.97,NW,315,2.5,2.7,1,0.00,,,0.00,WUHU216HW,2013-10-07 07:26:00,
2013-10-07 00:31:00,54.2,-1.2,29.97,WNW,293,2.9,2.9,1,0.00,,,0.00,WUHU216HW,2013-10-07 07:31:00,
2013-10-07 00:36:00,54.4,-1.1,29.97,SW,225,1.1,2.9,1,0.00,,,0.00,WUHU216HW,2013-10-07 07:36:00,
2013-10-07 00:41:00,54.2,-1.2,29.97,NNE,23,0.0,2.9,1,0.00,,,0.00,WUHU216HW,2013-10-07 07:41:00,
2013-10-07 00:46:00,54.2,-1.2,29.97,South,180,1.6,1.8,1,0.00,,,0.00,WUHU216HW,2013-10-07 07:46:00,
2013-10-07 00:51:00,54.2,-1.2,29.98,SSW,203,1.3,1.8,1,0.00,,,0.00,WUHU216HW,2013-10-07 07:51:00,
2013-10-07 00:56:00,54.0,-1.3,29.98,SSW,203,0.4,1.8,1,0.00,,,0.00,WUHU216HW,2013-10-07 07:56:00,
2013-10-07 01:01:00,53.6,-1.6,29.98,WNW,293,0.4,2.2,1,0.00,,,0.00,WUHU216HW,2013-10-07 08:01:00,
2013-10-07 01:06:00,53.5,-1.8,29.99,NNE,23,1.6,2.2,1,0.00,,,0.00,WUHU216HW,2013-10-07 08:06:00,
2013-10-07 01:11:00,53.5,-1.8,29.98,NNW,338,1.1,1.8,1,0.00,,,0.00,WUHU216HW,2013-10-07 08:11:00,
2013-10-07 01:16:00,53.3,-1.9,29.99,NNW,338,0.0,1.6,1,0.00,,,0.00,WUHU216HW,2013-10-07 08:16:00,
2013-10-07 01:21:00,53.1,-2.1,29.99,SSW,203,0.2,1.1,1,0.00,,,0.00,WUHU216HW,2013-10-07 08:21:00,
2013-10-07 01:26:00,52.9,-2.1,29.99,SSE,158,0.7,0.7,1,0.00,,,0.00,WUHU216HW,2013-10-07 08:26:00,
2013-10-07 01:31:00,52.9,-2.1,29.98,SSE,158,2.0,2.2,1,0.00,,,0.00,WUHU216HW,2013-10-07 08:31:00,
2013-10-07 01:36:00,53.1,-2.1,29.99,SSW,203,1.6,2.2,1,0.00,,,0.00,WUHU216HW,2013-10-07 08:36:00,
2013-10-07 01:41:00,53.1,-2.1,29.98,SSE,158,1.1,2.0,1,0.00,,,0.00,WUHU216HW,2013-10-07 08:41:00,
2013-10-07 01:46:00,52.7,-2.3,29.98,SE,135,0.9,1.6,1,0.00,,,0.00,WUHU216HW,2013-10-07 08:46:00,
2013-10-07 01:51:00,52.4,-2.6,29.99,ESE,113,0.0,1.1,1,0.00,,,0.00,WUHU216HW,2013-10-07 08:51:00,
2013-10-07 01:56:00,52.2,-2.8,29.99,NNE,23,0.7,1.3,1,0.00,,,0.00,WUHU216HW,2013-10-07 08:56:00,
2013-10-07 02:01:00,52.0,-2.9,29.99,NNE,23,0.7,1.3,1,0.00,,,0.00,WUHU216HW,2013-10-07 09:01:00,
2013-10-07 02:06:00,51.5,-3.3,29.99,ENE,68,0.7,1.3,1,0.00,,,0.00,WUHU216HW,2013-10-07 09:06:00,
2013-10-07 02:11:00,51.5,-3.3,29.99,NE,45,0.9,1.3,1,0.00,,,0.00,WUHU216HW,2013-10-07 09:11:00,
2013-10-07 02:16:00,51.7,-3.2,29.99,South,180,0.4,0.9,1,0.00,,,0.00,WUHU216HW,2013-10-07 09:16:00,
2013-10-07 02:21:00,51.7,-3.2,29.99,SW,225,0.4,0.4,1,0.00,,,0.00,WUHU216HW,2013-10-07 09:21:00,
2013-10-07 02:26:00,51.5,-3.3,29.99,SE,135,0.4,0.4,1,0.00,,,0.00,WUHU216HW,2013-10-07 09:26:00,
2013-10-07 02:31:00,51.5,-3.3,29.99,NE,45,1.3,1.3,1,0.00,,,0.00,WUHU216HW,2013-10-07 09:31:00,
2013-10-07 02:36:00,51.3,-3.5,29.99,ENE,68,0.0,1.3,1,0.00,,,0.00,WUHU216HW,2013-10-07 09:36:00,
2013-10-07 02:41:00,50.9,-3.8,29.99,ENE,68,0.0,1.3,1,0.00,,,0.00,WUHU216HW,2013-10-07 09:41:00,
2013-10-07 02:46:00,50.8,-4.0,29.99,ENE,68,0.0,0.0,1,0.00,,,0.00,WUHU216HW,2013-10-07 09:46:00,
2013-10-07 02:51:00,50.8,-4.0,29.99,SSE,158,2.5,2.7,1,0.00,,,0.00,WUHU216HW,2013-10-07 09:51:00,
2013-10-07 02:56:00,50.4,-4.2,29.99,SSE,158,4.0,4.0,1,0.00,,,0.00,WUHU216HW,2013-10-07 09:56:00,
2013-10-07 03:01:00,50.6,-4.0,29.99,SE,135,1.1,4.0,1,0.00,,,0.00,WUHU216HW,2013-10-07 10:01:00,
2013-10-07 03:06:00,50.8,-4.0,29.99,ESE,113,2.2,4.0,1,0.00,,,0.00,WUHU216HW,2013-10-07 10:06:00,
2013-10-07 03:11:00,50.8,-4.0,29.99,ESE,113,1.1,2.2,1,0.00,,,0.00,WUHU216HW,2013-10-07 10:11:00,
2013-10-07 03:16:00,50.8,-4.0,29.99,SSE,158,0.0,2.2,1,0.00,,,0.00,WUHU216HW,2013-10-07 10:16:00,
2013-10-07 03:21:00,50.8,-4.0,29.98,ESE,113,2.5,2.5,1,0.00,,,0.00,WUHU216HW,2013-10-07 10:21:00,
2013-10-07 03:26:00,50.8,-4.0,29.98,ESE,113,2.7,2.7,1,0.00,,,0.00,WUHU216HW,2013-10-07 10:26:00,
2013-10-07 03:31:00,50.4,-4.2,29.98,ESE,113,3.1,3.1,1,0.00,,,0.00,WUHU216HW,2013-10-07 10:31:00,
2013-10-07 03:36:00,50.6,-4.0,29.98,ESE,113,3.1,3.1,1,0.00,,,0.00,WUHU216HW,2013-10-07 10:36:00,
2013-10-07 03:41:00,50.8,-4.0,29.98,East,90,2.5,3.1,1,0.00,,,0.00,WUHU216HW,2013-10-07 10:41:00,
2013-10-07 03:46:00,50.8,-4.0,29.98,ENE,68,1.3,3.1,1,0.00,,,0.00,WUHU216HW,2013-10-07 10:46:00,
2013-10-07 03:51:00,50.8,-4.0,29.98,SE,135,1.8,2.5,1,0.00,,,0.00,WUHU216HW,2013-10-07 10:51:00,
2013-10-07 03:56:00,51.5,-3.3,29.98,ESE,113,2.5,2.5,1,0.00,,,0.00,WUHU216HW,2013-10-07 10:56:00,
2013-10-07 04:01:00,51.5,-3.3,29.98,South,180,5.4,5.4,1,0.00,,,0.00,WUHU216HW,2013-10-07 11:01:00,
2013-10-07 04:06:00,51.7,-3.2,29.97,SSE,158,5.4,5.4,1,0.00,,,0.00,WUHU216HW,2013-10-07 11:06:00,
2013-10-07 04:11:00,51.8,-3.1,29.97,SSE,158,6.5,6.5,1,0.00,,,0.00,WUHU216HW,2013-10-07 11:11:00,
2013-10-07 04:16:00,52.0,-2.9,29.97,South,180,2.5,6.5,1,0.00,,,0.00,WUHU216HW,2013-10-07 11:16:00,
2013-10-07 04:21:00,52.0,-2.9,29.97,NE,45,2.2,6.5,1,0.00,,,0.00,WUHU216HW,2013-10-07 11:21:00,
2013-10-07 04:26:00,51.8,-3.1,29.97,ENE,68,2.7,3.1,1,0.00,,,0.00,WUHU216HW,2013-10-07 11:26:00,
2013-10-07 04:31:00,51.3,-3.5,29.97,ESE,113,3.8,3.8,1,0.00,,,0.00,WUHU216HW,2013-10-07 11:31:00,
2013-10-07 04:36:00,51.1,-3.6,29.97,SSE,158,2.0,3.8,1,0.00,,,0.00,WUHU216HW,2013-10-07 11:36:00,
2013-10-07 04:41:00,50.9,-3.8,29.97,SSE,158,1.1,3.8,1,0.00,,,0.00,WUHU216HW,2013-10-07 11:41:00,
2013-10-07 04:46:00,50.8,-4.0,29.97,ESE,113,0.4,2.0,1,0.00,,,0.00,WUHU216HW,2013-10-07 11:46:00,
2013-10-07 04:51:00,50.8,-4.0,29.97,North,0,1.1,1.1,1,0.00,,,0.00,WUHU216HW,2013-10-07 11:51:00,
2013-10-07 04:56:00,50.9,-3.8,29.97,WNW,293,0.4,1.1,1,0.00,,,0.00,WUHU216HW,2013-10-07 11:56:00,
2013-10-07 05:01:00,50.8,-4.0,29.97,SSW,203,1.6,1.6,1,0.00,,,0.00,WUHU216HW,2013-10-07 12:01:00,
2013-10-07 05:06:00,50.6,-4.0,29.97,SSW,203,1.8,2.2,1,0.00,,,0.00,WUHU216HW,2013-10-07 12:06:00,
2013-10-07 05:11:00,50.6,-4.0,29.97,SSE,158,0.7,2.2,1,0.00,,,0.00,WUHU216HW,2013-10-07 12:11:00,
2013-10-07 05:16:00,50.8,-4.0,29.97,North,0,1.8,1.8,1,0.00,,,0.00,WUHU216HW,2013-10-07 12:16:00,
2013-10-07 05:21:00,50.9,-3.8,29.97,WNW,293,1.8,1.8,1,0.00,,,0.00,WUHU216HW,2013-10-07 12:21:00,
2013-10-07 05:26:00,50.8,-4.0,29.97,WNW,293,1.6,2.0,1,0.00,,,0.00,WUHU216HW,2013-10-07 12:26:00,
2013-10-07 05:31:00,50.6,-4.0,29.98,NW,315,1.6,2.0,1,0.00,,,0.00,WUHU216HW,2013-10-07 12:31:00,
2013-10-07 05:36:00,50.8,-4.0,29.98,NW,315,0.4,1.8,1,0.00,,,0.00,WUHU216HW,2013-10-07 12:36:00,
2013-10-07 05:41:00,50.6,-4.0,29.98,NW,315,0.9,1.6,1,0.00,,,0.00,WUHU216HW,2013-10-07 12:41:00,
2013-10-07 05:46:00,51.1,-3.6,29.98,NW,315,1.1,1.6,1,0.00,,,0.00,WUHU216HW,2013-10-07 12:46:00,
2013-10-07 05:51:00,51.5,-3.3,29.99,WNW,293,1.6,1.6,1,0.00,,,0.00,WUHU216HW,2013-10-07 12:51:00,
2013-10-07 05:56:00,51.5,-3.3,29.98,WNW,293,0.7,1.6,1,0.00,,,0.00,WUHU216HW,2013-10-07 12:56:00,
2013-10-07 06:01:00,51.5,-3.3,29.99,West,270,1.8,2.7,1,0.00,,,0.00,WUHU216HW,2013-10-07 13:01:00,
2013-10-07 06:06:00,51.5,-3.3,29.99,WNW,293,1.8,2.7,1,0.00,,,0.00,WUHU216HW,2013-10-07 13:06:00,
2013-10-07 06:11:00,51.8,-3.1,29.99,WNW,293,0.9,1.8,1,0.00,,,0.00,WUHU216HW,2013-10-07 13:11:00,
2013-10-07 06:16:00,51.8,-3.1,29.99,West,270,0.7,1.8,1,0.00,,,0.00,WUHU216HW,2013-10-07 13:16:00,
2013-10-07 06:21:00,51.8,-3.1,29.99,West,270,0.4,1.3,1,0.00,,,0.00,WUHU216HW,2013-10-07 13:21:00,
2013-10-07 06:26:00,51.7,-3.2,29.99,West,270,1.3,1.8,1,0.00,,,0.00,WUHU216HW,2013-10-07 13:26:00,
2013-10-07 06:31:00,51.7,-3.2,29.99,NW,315,1.3,1.8,1,0.00,,,0.00,WUHU216HW,2013-10-07 13:31:00,
2013-10-07 06:36:00,51.7,-3.2,29.99,WNW,293,0.9,1.3,1,0.01,,,0.01,WUHU216HW,2013-10-07 13:36:00,
2013-10-07 06:41:00,51.8,-3.1,30.00,WNW,293,1.1,1.3,1,0.01,,,0.01,WUHU216HW,2013-10-07 13:41:00,
2013-10-07 06:46:00,51.8,-3.1,30.00,WNW,293,0.7,2.0,1,0.01,,,0.01,WUHU216HW,2013-10-07 13:46:00,
2013-10-07 06:51:00,51.7,-3.2,30.00,WNW,293,1.1,2.0,1,0.01,,,0.01,WUHU216HW,2013-10-07 13:51:00,
2013-10-07 06:56:00,51.7,-3.2,30.00,WNW,293,0.2,2.0,1,0.01,,,0.01,WUHU216HW,2013-10-07 13:56:00,
2013-10-07 07:01:00,51.7,-3.2,30.00,WSW,248,1.3,2.0,1,0.01,,,0.01,WUHU216HW,2013-10-07 14:01:00,
2013-10-07 07:06:00,51.7,-3.2,30.00,WSW,248,2.5,2.5,1,0.01,,,0.01,WUHU216HW,2013-10-07 14:06:00,
2013-10-07 07:11:00,51.8,-3.1,30.00,WNW,293,2.5,2.5,1,0.01,,,0.01,WUHU216HW,2013-10-07 14:11:00,
2013-10-07 07:16:00,52.0,-2.9,30.00,West,270,2.5,2.5,1,0.01,,,0.01,WUHU216HW,2013-10-07 14:16:00,
2013-10-07 07:21:00,52.0,-2.9,30.00,West,270,2.9,2.9,1,0.02,,,0.02,WUHU216HW,2013-10-07 14:21:00,
2013-10-07 07:26:00,52.2,-2.8,30.01,WNW,293,2.0,2.9,1,0.03,,,0.03,WUHU216HW,2013-10-07 14:26:00,
2013-10-07 07:31:00,52.2,-2.8,30.01,West,270,1.1,2.9,1,0.04,,,0.04,WUHU216HW,2013-10-07 14:31:00,
2013-10-07 07:36:00,52.2,-2.8,30.01,WNW,293,2.9,2.9,1,0.03,,,0.04,WUHU216HW,2013-10-07 14:36:00,
2013-10-07 07:41:00,52.2,-2.8,30.01,SSE,158,0.7,2.9,1,0.04,,,0.05,WUHU216HW,2013-10-07 14:41:00,
2013-10-07 07:46:00,52.0,-2.9,30.02,SW,225,1.1,2.9,1,0.04,,,0.05,WUHU216HW,2013-10-07 14:46:00,
2013-10-07 07:51:00,52.0,-2.9,30.02,NW,315,0.9,1.1,1,0.05,,,0.06,WUHU216HW,2013-10-07 14:51:00,
2013-10-07 07:56:00,52.0,-2.9,30.02,West,270,1.8,1.8,1,0.05,,,0.06,WUHU216HW,2013-10-07 14:56:00,
2013-10-07 08:01:00,52.2,-2.8,30.02,West,270,1.3,1.8,1,0.05,,,0.06,WUHU216HW,2013-10-07 15:01:00,
2013-10-07 08:06:00,52.2,-2.8,30.02,WSW,248,1.3,1.8,1,0.05,,,0.06,WUHU216HW,2013-10-07 15:06:00,
2013-10-07 08:11:00,52.0,-2.9,30.02,WNW,293,2.5,2.5,1,0.05,,,0.06,WUHU216HW,2013-10-07 15:11:00,
2013-10-07 08:16:00,51.7,-3.2,30.02,WNW,293,1.8,2.5,1,0.05,,,0.07,WUHU216HW,2013-10-07 15:16:00,
2013-10-07 08:21:00,51.7,-3.2,30.02,SSW,203,0.9,2.5,1,0.05,,,0.07,WUHU216HW,2013-10-07 15:21:00,
2013-10-07 08:26:00,51.7,-3.2,30.02,NNW,338,1.6,1.8,1,0.04,,,0.07,WUHU216HW,2013-10-07 15:26:00,
2013-10-07 08:31:00,51.7,-3.2,30.02,SSE,158,1.6,1.6,1,0.03,,,0.07,WUHU216HW,2013-10-07 15:31:00,
2013-10-07 08:36:00,51.5,-3.3,30.02,NNE,23,0.4,1.6,1,0.02,,,0.07,WUHU216HW,2013-10-07 15:36:00,
2013-10-07 08:41:00,51.5,-3.3,30.03,NW,315,0.4,1.6,1,0.03,,,0.08,WUHU216HW,2013-10-07 15:41:00,
2013-10-07 08:46:00,51.3,-3.5,30.03,NW,315,0.0,0.4,1,0.03,,,0.08,WUHU216HW,2013-10-07 15:46:00,
2013-10-07 08:51:00,51.5,-3.3,30.03,NW,315,0.4,2.2,1,0.02,,,0.08,WUHU216HW,2013-10-07 15:51:00,
2013-10-07 08:56:00,51.7,-3.2,30.03,WSW,248,0.2,2.2,1,0.02,,,0.08,WUHU216HW,2013-10-07 15:56:00,
2013-10-07 09:01:00,52.0,-2.9,30.03,WNW,293,0.4,0.4,1,0.02,,,0.08,WUHU216HW,2013-10-07 16:01:00,
2013-10-07 09:06:00,53.5,-1.8,30.03,NE,45,0.2,1.1,1,0.02,,,0.08,WUHU216HW,2013-10-07 16:06:00,
2013-10-07 09:11:00,54.0,-1.3,30.03,WNW,293,2.5,2.5,1,0.02,,,0.08,WUHU216HW,2013-10-07 16:11:00,
2013-10-07 09:16:00,55.3,-0.4,30.03,SW,225,0.4,2.5,1,0.01,,,0.08,WUHU216HW,2013-10-07 16:16:00,
2013-10-07 09:21:00,57.1,1.0,30.03,NNW,338,0.7,2.5,1,0.01,,,0.08,WUHU216HW,2013-10-07 16:21:00,
2013-10-07 09:26:00,57.6,1.4,30.04,West,270,2.0,2.0,1,0.01,,,0.08,WUHU216HW,2013-10-07 16:26:00,
2013-10-07 09:31:00,58.0,1.6,30.04,WSW,248,1.3,2.0,1,0.01,,,0.08,WUHU216HW,2013-10-07 16:31:00,
2013-10-07 09:36:00,57.6,1.4,30.04,WSW,248,1.8,2.0,1,0.00,,,0.08,WUHU216HW,2013-10-07 16:36:00,
2013-10-07 09:41:00,58.0,1.6,30.04,ENE,68,2.7,3.4,1,0.00,,,0.08,WUHU216HW,2013-10-07 16:41:00,
2013-10-07 09:46:00,58.7,2.3,30.04,WSW,248,2.5,3.6,1,0.00,,,0.08,WUHU216HW,2013-10-07 16:46:00,
2013-10-07 09:51:00,59.9,3.2,30.04,SW,225,1.8,3.6,1,0.00,,,0.08,WUHU216HW,2013-10-07 16:51:00,
2013-10-07 09:56:00,60.8,4.0,30.04,SW,225,2.5,2.5,1,0.00,,,0.08,WUHU216HW,2013-10-07 16:56:00,
2013-10-07 10:02:00,61.2,4.2,30.04,NW,315,2.2,2.5,1,0.00,,,0.08,WUHU216HW,2013-10-07 17:02:00,
2013-10-07 10:07:00,61.9,4.9,30.05,WNW,293,2.7,4.7,1,0.00,,,0.08,WUHU216HW,2013-10-07 17:07:00,
2013-10-07 10:12:00,61.7,4.7,30.05,NW,315,3.1,4.7,1,0.00,,,0.08,WUHU216HW,2013-10-07 17:12:00,
2013-10-07 10:17:00,61.0,4.2,30.05,NNW,338,4.7,4.7,1,0.00,,,0.08,WUHU216HW,2013-10-07 17:17:00,
2013-10-07 10:22:00,60.1,3.4,30.05,NW,315,4.7,4.7,1,0.00,,,0.08,WUHU216HW,2013-10-07 17:22:00,
2013-10-07 10:27:00,58.9,2.3,30.05,NW,315,4.9,5.1,1,0.00,,,0.08,WUHU216HW,2013-10-07 17:27:00,
2013-10-07 10:32:00,59.0,2.5,30.05,NW,315,4.5,5.1,1,0.00,,,0.08,WUHU216HW,2013-10-07 17:32:00,
2013-10-07 10:37:00,60.1,3.4,30.05,NW,315,3.8,4.9,1,0.00,,,0.08,WUHU216HW,2013-10-07 17:37:00,
2013-10-07 10:42:00,60.1,3.4,30.05,NNW,338,4.7,4.7,1,0.00,,,0.08,WUHU216HW,2013-10-07 17:42:00,
2013-10-07 10:47:00,60.1,3.4,30.05,NW,315,2.9,4.7,1,0.00,,,0.08,WUHU216HW,2013-10-07 17:47:00,
2013-10-07 10:52:00,60.8,4.0,30.05,North,0,3.4,4.7,1,0.00,,,0.08,WUHU216HW,2013-10-07 17:52:00,
2013-10-07 10:57:00,60.5,3.7,30.05,NNW,338,4.5,4.5,1,0.00,,,0.08,WUHU216HW,2013-10-07 17:57:00,
2013-10-07 11:02:00,61.0,4.2,30.05,NW,315,2.7,4.5,1,0.00,,,0.08,WUHU216HW,2013-10-07 18:02:00,
2013-10-07 11:07:00,60.5,3.7,30.06,North,0,3.4,4.5,1,0.00,,,0.08,WUHU216HW,2013-10-07 18:07:00,
2013-10-07 11:12:00,60.3,3.5,30.05,WNW,293,5.1,5.1,1,0.00,,,0.08,WUHU216HW,2013-10-07 18:12:00,
2013-10-07 11:17:00,60.5,3.7,30.06,West,270,5.1,5.1,1,0.00,,,0.08,WUHU216HW,2013-10-07 18:17:00,
2013-10-07 11:22:00,60.3,3.5,30.06,NNE,23,4.7,5.1,1,0.00,,,0.08,WUHU216HW,2013-10-07 18:22:00,
2013-10-07 11:27:00,60.7,3.8,30.06,WNW,293,3.8,5.1,1,0.00,,,0.08,WUHU216HW,2013-10-07 18:27:00,
2013-10-07 11:32:00,60.7,3.8,30.06,WNW,293,5.4,5.4,1,0.00,,,0.08,WUHU216HW,2013-10-07 18:32:00,
2013-10-07 11:37:00,60.5,3.7,30.06,NW,315,4.3,5.4,1,0.00,,,0.08,WUHU216HW,2013-10-07 18:37:00,
2013-10-07 11:42:00,59.9,3.2,30.06,WNW,293,4.7,5.4,1,0.00,,,0.08,WUHU216HW,2013-10-07 18:42:00,
2013-10-07 11:47:00,58.7,2.3,30.06,West,270,3.6,4.7,1,0.00,,,0.08,WUHU216HW,2013-10-07 18:47:00,
2013-10-07 11:52:00,58.0,1.6,30.07,West,270,2.5,4.7,1,0.00,,,0.08,WUHU216HW,2013-10-07 18:52:00,
2013-10-07 11:57:00,57.6,1.4,30.07,West,270,2.5,3.6,1,0.00,,,0.08,WUHU216HW,2013-10-07 18:57:00,
2013-10-07 12:02:00,57.6,1.4,30.07,WNW,293,4.5,4.5,1,0.00,,,0.08,WUHU216HW,2013-10-07 19:02:00,
2013-10-07 12:07:00,57.4,1.3,30.07,WNW,293,4.0,4.5,1,0.00,,,0.08,WUHU216HW,2013-10-07 19:07:00,
2013-10-07 12:12:00,57.6,1.4,30.07,North,0,4.5,4.5,1,0.00,,,0.08,WUHU216HW,2013-10-07 19:12:00,
2013-10-07 12:17:00,58.3,2.0,30.07,NW,315,4.0,5.4,1,0.00,,,0.08,WUHU216HW,2013-10-07 19:17:00,
2013-10-07 12:22:00,59.6,3.0,30.07,NW,315,2.2,5.4,1,0.00,,,0.08,WUHU216HW,2013-10-07 19:22:00,
2013-10-07 12:27:00,60.5,3.7,30.07,WNW,293,2.7,5.8,1,0.00,,,0.08,WUHU216HW,2013-10-07 19:27:00,
2013-10-07 12:32:00,59.8,3.1,30.07,NW,315,2.2,5.8,1,0.00,,,0.08,WUHU216HW,2013-10-07 19:32:00,
2013-10-07 12:37:00,60.1,3.4,30.07,North,0,5.4,5.4,1,0.00,,,0.08,WUHU216HW,2013-10-07 19:37:00,
2013-10-07 12:42:00,60.7,3.8,30.07,WNW,293,2.5,5.4,1,0.00,,,0.08,WUHU216HW,2013-10-07 19:42:00,
2013-10-07 12:47:00,61.4,4.4,30.08,ENE,68,2.5,5.4,1,0.00,,,0.08,WUHU216HW,2013-10-07 19:47:00,
2013-10-07 12:52:00,61.6,4.5,30.08,West,270,2.9,2.9,1,0.00,,,0.08,WUHU216HW,2013-10-07 19:52:00,
2013-10-07 12:57:00,61.6,4.5,30.08,ESE,113,2.7,4.0,1,0.00,,,0.08,WUHU216HW,2013-10-07 19:57:00,
2013-10-07 13:02:00,61.2,4.2,30.07,West,270,4.7,4.7,1,0.00,,,0.08,WUHU216HW,2013-10-07 20:02:00,
2013-10-07 13:07:00,61.0,4.2,30.08,NW,315,3.4,4.7,1,0.00,,,0.08,WUHU216HW,2013-10-07 20:07:00,
2013-10-07 13:12:00,61.2,4.2,30.08,WNW,293,2.9,4.7,1,0.00,,,0.08,WUHU216HW,2013-10-07 20:12:00,
2013-10-07 13:17:00,60.3,3.5,30.08,WNW,293,2.7,3.4,1,0.00,,,0.08,WUHU216HW,2013-10-07 20:17:00,
2013-10-07 13:22:00,58.7,2.3,30.08,West,270,2.0,3.4,1,0.00,,,0.08,WUHU216HW,2013-10-07 20:22:00,
2013-10-07 13:27:00,58.9,2.3,30.08,WNW,293,2.2,2.7,1,0.00,,,0.08,WUHU216HW,2013-10-07 20:27:00,
2013-10-07 13:32:00,59.4,2.8,30.08,West,270,1.6,2.2,1,0.00,,,0.08,WUHU216HW,2013-10-07 20:32:00,
2013-10-07 13:37:00,59.4,2.8,30.08,NW,315,2.0,2.2,1,0.00,,,0.08,WUHU216HW,2013-10-07 20:37:00,
2013-10-07 13:42:00,60.1,3.4,30.08,WSW,248,3.6,3.6,1,0.00,,,0.08,WUHU216HW,2013-10-07 20:42:00,
2013-10-07 13:47:00,59.8,3.1,30.08,SW,225,1.8,3.6,1,0.00,,,0.08,WUHU216HW,2013-10-07 20:47:00,
2013-10-07 13:52:00,60.8,4.0,30.08,West,270,2.7,3.6,1,0.00,,,0.08,WUHU216HW,2013-10-07 20:52:00,
2013-10-07 13:57:00,59.4,2.8,30.08,SSE,158,4.5,4.5,1,0.00,,,0.08,WUHU216HW,2013-10-07 20:57:00,
2013-10-07 14:02:00,58.1,1.8,30.08,WSW,248,2.5,4.5,1,0.00,,,0.08,WUHU216HW,2013-10-07 21:02:00,
2013-10-07 14:07:00,58.1,1.8,30.08,WSW,248,3.4,4.5,1,0.00,,,0.08,WUHU216HW,2013-10-07 21:07:00,
2013-10-07 14:12:00,58.7,2.3,30.08,WSW,248,1.1,3.4,1,0.00,,,0.08,WUHU216HW,2013-10-07 21:12:00,
2013-10-07 14:17:00,60.5,3.7,30.08,West,270,3.8,3.8,1,0.00,,,0.08,WUHU216HW,2013-10-07 21:17:00,
2013-10-07 14:22:00,61.6,4.5,30.08,NNW,338,3.1,5.4,1,0.00,,,0.08,WUHU216HW,2013-10-07 21:22:00,
2013-10-07 14:27:00,62.6,5.4,30.08,WNW,293,2.5,5.4,1,0.00,,,0.08,WUHU216HW,2013-10-07 21:27:00,
2013-10-07 14:32:00,63.7,6.1,30.08,West,270,2.5,4.0,1,0.00,,,0.08,WUHU216HW,2013-10-07 21:32:00,
2013-10-07 14:37:00,61.9,4.9,30.09,North,0,1.3,2.5,1,0.00,,,0.08,WUHU216HW,2013-10-07 21:37:00,
2013-10-07 14:42:00,59.0,2.5,30.09,South,180,0.9,3.1,1,0.00,,,0.08,WUHU216HW,2013-10-07 21:42:00,
2013-10-07 14:47:00,58.7,2.3,30.09,WSW,248,1.8,3.4,1,0.00,,,0.08,WUHU216HW,2013-10-07 21:47:00,
2013-10-07 14:52:00,58.1,1.8,30.09,SSE,158,2.0,3.4,1,0.00,,,0.08,WUHU216HW,2013-10-07 21:52:00,
2013-10-07 14:57:00,57.8,1.5,30.09,SSW,203,2.5,2.9,1,0.00,,,0.08,WUHU216HW,2013-10-07 21:57:00,
2013-10-07 15:02:00,57.8,1.5,30.09,SSE,158,0.4,2.9,1,0.00,,,0.08,WUHU216HW,2013-10-07 22:02:00,
2013-10-07 15:07:00,57.8,1.5,30.10,SW,225,1.8,2.5,1,0.00,,,0.08,WUHU216HW,2013-10-07 22:07:00,
2013-10-07 15:12:00,58.3,2.0,30.10,North,0,1.1,2.5,1,0.00,,,0.08,WUHU216HW,2013-10-07 22:12:00,
2013-10-07 15:17:00,59.4,2.8,30.10,NNW,338,1.3,2.9,1,0.00,,,0.08,WUHU216HW,2013-10-07 22:17:00,
2013-10-07 15:22:00,59.8,3.1,30.09,WSW,248,3.6,3.6,1,0.00,,,0.08,WUHU216HW,2013-10-07 22:22:00,
2013-10-07 15:27:00,59.8,3.1,30.10,NW,315,0.9,3.6,1,0.00,,,0.08,WUHU216HW,2013-10-07 22:27:00,
2013-10-07 15:32:00,59.6,3.0,30.10,NNE,23,1.1,3.6,1,0.00,,,0.08,WUHU216HW,2013-10-07 22:32:00,
2013-10-07 15:37:00,59.8,3.1,30.09,North,0,1.1,1.1,1,0.00,,,0.08,WUHU216HW,2013-10-07 22:37:00,
2013-10-07 15:42:00,59.9,3.2,30.10,NW,315,2.2,2.2,1,0.00,,,0.08,WUHU216HW,2013-10-07 22:42:00,
2013-10-07 15:47:00,58.7,2.3,30.10,NNW,338,1.8,2.2,1,0.00,,,0.08,WUHU216HW,2013-10-07 22:47:00,
2013-10-07 15:52:00,58.0,1.6,30.10,NW,315,4.0,4.0,1,0.00,,,0.08,WUHU216HW,2013-10-07 22:52:00,
2013-10-07 15:57:00,57.8,1.5,30.10,WNW,293,2.7,4.0,1,0.00,,,0.08,WUHU216HW,2013-10-07 22:57:00,
2013-10-07 16:02:00,56.5,0.5,30.10,NW,315,2.9,4.5,1,0.00,,,0.08,WUHU216HW,2013-10-07 23:02:00,
2013-10-07 16:07:00,56.5,0.5,30.10,West,270,2.5,4.5,1,0.00,,,0.08,WUHU216HW,2013-10-07 23:07:00,
2013-10-07 16:12:00,56.5,0.5,30.10,WNW,293,3.8,3.8,1,0.00,,,0.08,WUHU216HW,2013-10-07 23:12:00,
2013-10-07 16:17:00,56.5,0.5,30.10,NNW,338,1.3,3.8,1,0.00,,,0.08,WUHU216HW,2013-10-07 23:17:00,
2013-10-07 16:22:00,57.1,1.0,30.10,SE,135,0.7,3.8,1,0.00,,,0.08,WUHU216HW,2013-10-07 23:22:00,
2013-10-07 16:27:00,57.2,1.1,30.10,West,270,2.0,2.0,1,0.00,,,0.08,WUHU216HW,2013-10-07 23:27:00,
2013-10-07 16:32:00,57.4,1.3,30.10,SSE,158,2.0,2.0,1,0.00,,,0.08,WUHU216HW,2013-10-07 23:32:00,
2013-10-07 16:37:00,57.6,1.4,30.10,WNW,293,0.4,2.5,1,0.00,,,0.08,WUHU216HW,2013-10-07 23:37:00,
2013-10-07 16:42:00,57.6,1.4,30.10,NW,315,2.5,2.5,1,0.00,,,0.08,WUHU216HW,2013-10-07 23:42:00,
2013-10-07 16:47:00,56.7,0.7,30.10,West,270,0.7,2.5,1,0.00,,,0.08,WUHU216HW,2013-10-07 23:47:00,
2013-10-07 16:52:00,56.7,0.7,30.10,WNW,293,1.8,2.5,1,0.00,,,0.08,WUHU216HW,2013-10-07 23:52:00,
2013-10-07 16:57:00,56.0,0.2,30.10,North,0,1.8,1.8,1,0.00,,,0.08,WUHU216HW,2013-10-07 23:57:00,
2013-10-07 17:02:00,55.8,0.1,30.10,NNW,338,0.4,1.8,1,0.00,,,0.08,WUHU216HW,2013-10-08 00:02:00,
2013-10-07 17:07:00,55.8,0.1,30.10,ENE,68,1.3,1.8,1,0.00,,,0.08,WUHU216HW,2013-10-08 00:07:00,
2013-10-07 17:12:00,55.4,-0.2,30.10,NE,45,0.7,1.3,1,0.00,,,0.08,WUHU216HW,2013-10-08 00:12:00,
2013-10-07 17:17:00,55.1,-0.4,30.10,North,0,0.0,1.3,1,0.00,,,0.08,WUHU216HW,2013-10-08 00:17:00,
2013-10-07 17:22:00,55.1,-0.4,30.10,ESE,113,0.4,0.7,1,0.00,,,0.08,WUHU216HW,2013-10-08 00:22:00,
2013-10-07 17:27:00,54.7,-0.7,30.10,NNE,23,0.4,1.3,1,0.00,,,0.08,WUHU216HW,2013-10-08 00:27:00,
2013-10-07 17:32:00,54.5,-0.9,30.10,NNE,23,0.7,1.3,1,0.00,,,0.08,WUHU216HW,2013-10-08 00:32:00,
2013-10-07 17:37:00,54.4,-1.1,30.10,NNE,23,1.1,1.1,1,0.00,,,0.08,WUHU216HW,2013-10-08 00:37:00,
2013-10-07 17:42:00,54.2,-1.2,30.10,NE,45,0.0,1.1,1,0.00,,,0.08,WUHU216HW,2013-10-08 00:42:00,
2013-10-07 17:47:00,54.4,-1.1,30.10,ESE,113,0.9,1.1,1,0.00,,,0.08,WUHU216HW,2013-10-08 00:47:00,
2013-10-07 17:52:00,54.4,-1.1,30.10,ESE,113,3.4,3.4,1,0.00,,,0.08,WUHU216HW,2013-10-08 00:52:00,
2013-10-07 17:57:00,54.5,-0.9,30.10,ESE,113,1.8,3.4,1,0.00,,,0.08,WUHU216HW,2013-10-08 00:57:00,
2013-10-07 18:02:00,54.4,-1.1,30.10,ENE,68,1.3,3.4,1,0.00,,,0.08,WUHU216HW,2013-10-08 01:02:00,
2013-10-07 18:07:00,54.4,-1.1,30.10,ESE,113,0.9,1.8,1,0.00,,,0.08,WUHU216HW,2013-10-08 01:07:00,
2013-10-07 18:12:00,54.4,-1.1,30.11,East,90,0.9,1.3,1,0.00,,,0.08,WUHU216HW,2013-10-08 01:12:00,
2013-10-07 18:17:00,54.2,-1.2,30.10,East,90,0.0,0.9,1,0.00,,,0.08,WUHU216HW,2013-10-08 01:17:00,
2013-10-07 18:22:00,54.0,-1.3,30.11,ENE,68,0.0,0.9,1,0.00,,,0.08,WUHU216HW,2013-10-08 01:22:00,
2013-10-07 18:27:00,53.8,-1.4,30.11,ENE,68,0.4,0.4,1,0.00,,,0.08,WUHU216HW,2013-10-08 01:27:00,
2013-10-07 18:32:00,53.8,-1.4,30.11,ENE,68,0.0,0.7,1,0.00,,,0.08,WUHU216HW,2013-10-08 01:32:00,
2013-10-07 18:34:00,54.2,-1.2,30.11,NW,315,1.3,1.3,1,0.00,,,0.08,WUHU216HW,2013-10-08 01:34:00,
2013-10-07 18:35:00,54.0,-1.3,30.11,NW,315,1.3,1.3,1,0.01,,,0.09,WUHU216HW,2013-10-08 01:35:00,
2013-10-07 18:37:00,54.0,-1.3,30.11,NW,315,1.3,1.3,1,0.01,,,0.09,WUHU216HW,2013-10-08 01:37:00,
2013-10-07 18:38:00,53.6,-1.6,30.11,WNW,293,0.0,1.3,1,0.01,,,0.09,WUHU216HW,2013-10-08 01:38:00,
2013-10-07 18:40:00,53.5,-1.8,30.11,WNW,293,0.0,1.3,1,0.01,,,0.09,WUHU216HW,2013-10-08 01:40:00,
2013-10-07 18:41:00,53.5,-1.8,30.11,WNW,293,0.0,1.3,1,0.01,,,0.09,WUHU216HW,2013-10-08 01:41:00,
2013-10-07 18:43:00,53.5,-1.8,30.11,WNW,293,0.0,1.3,1,0.01,,,0.09,WUHU216HW,2013-10-08 01:43:00,
2013-10-07 18:44:00,53.5,-1.8,30.11,West,270,1.8,1.8,1,0.02,,,0.10,WUHU216HW,2013-10-08 01:44:00,
2013-10-07 18:46:00,53.5,-1.8,30.11,West,270,1.8,1.8,1,0.02,,,0.10,WUHU216HW,2013-10-08 01:46:00,
2013-10-07 18:47:00,53.5,-1.8,30.11,West,270,1.8,1.8,1,0.02,,,0.10,WUHU216HW,2013-10-08 01:47:00,
2013-10-07 18:49:00,53.1,-2.1,30.11,West,270,0.0,1.8,1,0.02,,,0.10,WUHU216HW,2013-10-08 01:49:00,
2013-10-07 18:50:00,53.1,-2.1,30.11,West,270,0.0,1.8,1,0.02,,,0.10,WUHU216HW,2013-10-08 01:50:00,
2013-10-07 18:52:00,53.1,-2.1,30.11,West,270,0.0,1.8,1,0.02,,,0.10,WUHU216HW,2013-10-08 01:52:00,
2013-10-07 18:53:00,52.9,-2.1,30.11,NW,315,0.0,1.8,1,0.03,,,0.11,WUHU216HW,2013-10-08 01:53:00,
2013-10-07 18:55:00,52.9,-2.1,30.11,NW,315,0.0,1.8,1,0.03,,,0.11,WUHU216HW,2013-10-08 01:55:00,
2013-10-07 18:56:00,52.9,-2.1,30.11,NW,315,0.0,1.8,1,0.03,,,0.11,WUHU216HW,2013-10-08 01:56:00,
2013-10-07 18:58:00,52.9,-2.1,30.11,NW,315,0.0,0.2,1,0.03,,,0.11,WUHU216HW,2013-10-08 01:58:00,
2013-10-07 18:59:00,52.9,-2.1,30.11,NW,315,0.0,0.2,1,0.03,,,0.11,WUHU216HW,2013-10-08 01:59:00,
2013-10-07 19:01:00,52.9,-2.1,30.11,SW,225,0.7,0.7,1,0.03,,,0.11,WUHU216HW,2013-10-08 02:01:00,
2013-10-07 19:02:00,52.9,-2.1,30.11,SW,225,0.7,0.7,1,0.03,,,0.11,WUHU216HW,2013-10-08 02:02:00,
2013-10-07 19:04:00,52.9,-2.1,30.11,SW,225,0.0,0.7,1,0.04,,,0.12,WUHU216HW,2013-10-08 02:04:00,
2013-10-07 19:05:00,52.9,-2.1,30.11,SW,225,0.0,0.7,1,0.04,,,0.12,WUHU216HW,2013-10-08 02:05:00,
2013-10-07 19:07:00,52.9,-2.1,30.11,SW,225,0.0,0.7,1,0.04,,,0.12,WUHU216HW,2013-10-08 02:07:00,
2013-10-07 19:08:00,52.7,-2.3,30.11,SW,225,0.0,0.7,1,0.04,,,0.12,WUHU216HW,2013-10-08 02:08:00,
2013-10-07 19:10:00,52.7,-2.3,30.11,SW,225,0.0,0.7,1,0.04,,,0.12,WUHU216HW,2013-10-08 02:10:00,
2013-10-07 19:11:00,52.7,-2.3,30.11,SW,225,0.0,0.7,1,0.04,,,0.12,WUHU216HW,2013-10-08 02:11:00,
2013-10-07 19:13:00,52.6,-2.5,30.11,SW,225,0.0,0.7,1,0.05,,,0.13,WUHU216HW,2013-10-08 02:13:00,
2013-10-07 19:14:00,52.6,-2.5,30.11,SW,225,0.0,0.0,1,0.05,,,0.13,WUHU216HW,2013-10-08 02:14:00,
2013-10-07 19:16:00,52.6,-2.5,30.11,SW,225,0.0,0.0,1,0.05,,,0.13,WUHU216HW,2013-10-08 02:16:00,
2013-10-07 19:17:00,52.6,-2.5,30.11,SSE,158,1.1,1.1,1,0.05,,,0.13,WUHU216HW,2013-10-08 02:17:00,
2013-10-07 19:19:00,52.6,-2.5,30.11,SSE,158,1.1,1.1,1,0.05,,,0.13,WUHU216HW,2013-10-08 02:19:00,
2013-10-07 19:20:00,52.6,-2.5,30.11,ESE,113,1.3,1.3,1,0.06,,,0.14,WUHU216HW,2013-10-08 02:20:00,
2013-10-07 19:22:00,52.6,-2.5,30.11,ESE,113,1.3,1.3,1,0.06,,,0.14,WUHU216HW,2013-10-08 02:22:00,
2013-10-07 19:23:00,52.6,-2.5,30.11,ESE,113,1.3,1.3,1,0.06,,,0.14,WUHU216HW,2013-10-08 02:23:00,
2013-10-07 19:25:00,52.6,-2.5,30.11,ESE,113,0.0,1.3,1,0.07,,,0.15,WUHU216HW,2013-10-08 02:25:00,
2013-10-07 19:26:00,52.6,-2.5,30.11,ESE,113,0.0,1.3,1,0.07,,,0.15,WUHU216HW,2013-10-08 02:26:00,
2013-10-07 19:28:00,52.6,-2.5,30.11,ESE,113,0.4,1.3,1,0.07,,,0.15,WUHU216HW,2013-10-08 02:28:00,
2013-10-07 19:29:00,52.6,-2.5,30.11,SE,135,0.7,1.3,1,0.08,,,0.16,WUHU216HW,2013-10-08 02:29:00,
2013-10-07 19:31:00,52.6,-2.5,30.11,SE,135,0.7,1.3,1,0.08,,,0.16,WUHU216HW,2013-10-08 02:31:00,
2013-10-07 19:32:00,52.6,-2.5,30.11,SE,135,0.7,1.3,1,0.07,,,0.16,WUHU216HW,2013-10-08 02:32:00,
2013-10-07 19:34:00,52.6,-2.5,30.11,SW,225,0.0,1.3,1,0.07,,,0.16,WUHU216HW,2013-10-08 02:34:00,
2013-10-07 19:35:00,52.6,-2.5,30.11,SW,225,0.0,0.7,1,0.07,,,0.16,WUHU216HW,2013-10-08 02:35:00,
2013-10-07 19:37:00,52.4,-2.6,30.11,SE,135,1.8,1.8,1,0.07,,,0.16,WUHU216HW,2013-10-08 02:37:00,
2013-10-07 19:38:00,52.4,-2.6,30.11,SE,135,1.8,1.8,1,0.07,,,0.16,WUHU216HW,2013-10-08 02:38:00,
2013-10-07 19:40:00,52.4,-2.6,30.11,SE,135,1.8,1.8,1,0.07,,,0.16,WUHU216HW,2013-10-08 02:40:00,
2013-10-07 19:41:00,52.4,-2.6,30.11,SE,135,0.0,1.8,1,0.07,,,0.16,WUHU216HW,2013-10-08 02:41:00,
2013-10-07 19:43:00,52.4,-2.6,30.11,SE,135,0.0,1.8,1,0.07,,,0.16,WUHU216HW,2013-10-08 02:43:00,
2013-10-07 19:44:00,52.4,-2.6,30.11,South,180,0.4,1.8,1,0.06,,,0.16,WUHU216HW,2013-10-08 02:44:00,
2013-10-07 19:46:00,52.4,-2.6,30.12,South,180,0.4,1.8,1,0.06,,,0.16,WUHU216HW,2013-10-08 02:46:00,
2013-10-07 19:47:00,52.4,-2.6,30.11,South,180,0.4,1.8,1,0.06,,,0.16,WUHU216HW,2013-10-08 02:47:00,
2013-10-07 19:49:00,52.2,-2.8,30.11,SSE,158,1.8,1.8,1,0.06,,,0.16,WUHU216HW,2013-10-08 02:49:00,
2013-10-07 19:50:00,52.2,-2.8,30.11,SSE,158,1.8,1.8,1,0.06,,,0.16,WUHU216HW,2013-10-08 02:50:00,
2013-10-07 19:52:00,52.2,-2.8,30.11,SSE,158,2.0,2.0,1,0.05,,,0.16,WUHU216HW,2013-10-08 02:52:00,
2013-10-07 19:53:00,52.2,-2.8,30.11,SSE,158,1.6,2.0,1,0.05,,,0.16,WUHU216HW,2013-10-08 02:53:00,
2013-10-07 19:55:00,52.2,-2.8,30.11,SSE,158,1.6,2.0,1,0.05,,,0.16,WUHU216HW,2013-10-08 02:55:00,
2013-10-07 19:56:00,52.2,-2.8,30.11,SSE,158,2.5,2.5,1,0.05,,,0.16,WUHU216HW,2013-10-08 02:56:00,
2013-10-07 19:58:00,52.2,-2.8,30.11,SSE,158,2.9,2.9,1,0.05,,,0.16,WUHU216HW,2013-10-08 02:58:00,
2013-10-07 19:59:00,52.2,-2.8,30.11,SSE,158,2.9,2.9,1,0.05,,,0.16,WUHU216HW,2013-10-08 02:59:00,
2013-10-07 20:01:00,52.2,-2.8,30.11,SE,135,1.6,2.9,1,0.05,,,0.16,WUHU216HW,2013-10-08 03:01:00,
2013-10-07 20:02:00,52.2,-2.8,30.11,SE,135,1.6,2.9,1,0.05,,,0.16,WUHU216HW,2013-10-08 03:02:00,
2013-10-07 20:04:00,52.2,-2.8,30.12,SE,135,1.6,2.9,1,0.04,,,0.16,WUHU216HW,2013-10-08 03:04:00,
2013-10-07 20:05:00,52.2,-2.8,30.12,SW,225,0.4,2.9,1,0.04,,,0.16,WUHU216HW,2013-10-08 03:05:00,
2013-10-07 20:07:00,52.2,-2.8,30.11,SW,225,0.4,2.9,1,0.04,,,0.16,WUHU216HW,2013-10-08 03:07:00,
2013-10-07 20:08:00,52.2,-2.8,30.11,SE,135,0.4,2.9,1,0.04,,,0.16,WUHU216HW,2013-10-08 03:08:00,
2013-10-07 20:10:00,52.2,-2.8,30.11,SE,135,0.4,2.9,1,0.04,,,0.16,WUHU216HW,2013-10-08 03:10:00,
2013-10-07 20:11:00,52.2,-2.8,30.11,SE,135,0.4,1.6,1,0.04,,,0.16,WUHU216HW,2013-10-08 03:11:00,
2013-10-07 20:13:00,52.2,-2.8,30.11,SE,135,0.2,1.6,1,0.03,,,0.16,WUHU216HW,2013-10-08 03:13:00,
2013-10-07 20:14:00,52.2,-2.8,30.11,SE,135,0.2,0.4,1,0.03,,,0.16,WUHU216HW,2013-10-08 03:14:00,
2013-10-07 20:16:00,52.2,-2.8,30.11,SE,135,0.2,0.4,1,0.03,,,0.16,WUHU216HW,2013-10-08 03:16:00,
2013-10-07 20:17:00,52.2,-2.8,30.11,SE,135,3.8,3.8,1,0.03,,,0.16,WUHU216HW,2013-10-08 03:17:00,
2013-10-07 20:19:00,52.2,-2.8,30.11,SE,135,3.8,3.8,1,0.03,,,0.16,WUHU216HW,2013-10-08 03:19:00,
2013-10-07 20:20:00,52.2,-2.8,30.12,NNW,338,1.6,3.8,1,0.02,,,0.16,WUHU216HW,2013-10-08 03:20:00,
2013-10-07 20:22:00,52.2,-2.8,30.12,NNW,338,1.6,3.8,1,0.02,,,0.16,WUHU216HW,2013-10-08 03:22:00,
2013-10-07 20:23:00,52.2,-2.8,30.12,NNW,338,1.6,3.8,1,0.02,,,0.16,WUHU216HW,2013-10-08 03:23:00,
2013-10-07 20:25:00,52.2,-2.8,30.12,North,0,1.1,3.8,1,0.01,,,0.16,WUHU216HW,2013-10-08 03:25:00,
2013-10-07 20:26:00,52.2,-2.8,30.12,North,0,1.1,3.8,1,0.01,,,0.16,WUHU216HW,2013-10-08 03:26:00,
2013-10-07 20:28:00,52.2,-2.8,30.12,North,0,1.1,3.8,1,0.00,,,0.16,WUHU216HW,2013-10-08 03:28:00,
2013-10-07 20:29:00,52.2,-2.8,30.11,SE,135,2.0,3.8,1,0.00,,,0.16,WUHU216HW,2013-10-08 03:29:00,
2013-10-07 20:31:00,52.2,-2.8,30.11,SE,135,2.0,2.0,1,0.00,,,0.16,WUHU216HW,2013-10-08 03:31:00,
2013-10-07 20:32:00,52.2,-2.8,30.11,SW,225,1.8,2.7,1,0.01,,,0.17,WUHU216HW,2013-10-08 03:32:00,
2013-10-07 20:34:00,52.2,-2.8,30.11,SW,225,1.8,2.7,1,0.01,,,0.17,WUHU216HW,2013-10-08 03:34:00,
2013-10-07 20:35:00,52.2,-2.8,30.12,SW,225,1.8,2.7,1,0.01,,,0.17,WUHU216HW,2013-10-08 03:35:00,
2013-10-07 20:37:00,52.2,-2.8,30.11,North,0,1.1,2.7,1,0.01,,,0.17,WUHU216HW,2013-10-08 03:37:00,
2013-10-07 20:38:00,52.2,-2.8,30.11,ENE,68,1.3,2.7,1,0.01,,,0.17,WUHU216HW,2013-10-08 03:38:00,
2013-10-07 20:40:00,52.2,-2.8,30.11,ENE,68,1.3,2.7,1,0.01,,,0.17,WUHU216HW,2013-10-08 03:40:00,
2013-10-07 20:41:00,52.2,-2.8,30.11,SSE,158,1.1,2.7,1,0.01,,,0.17,WUHU216HW,2013-10-08 03:41:00,
2013-10-07 20:43:00,52.2,-2.8,30.12,SSE,158,1.1,1.8,1,0.01,,,0.17,WUHU216HW,2013-10-08 03:43:00,
2013-10-07 20:44:00,52.2,-2.8,30.12,SSE,158,1.1,1.8,1,0.01,,,0.17,WUHU216HW,2013-10-08 03:44:00,
2013-10-07 20:46:00,52.2,-2.8,30.11,SE,135,0.2,1.3,1,0.01,,,0.17,WUHU216HW,2013-10-08 03:46:00,
2013-10-07 20:47:00,52.2,-2.8,30.11,SE,135,0.2,1.3,1,0.01,,,0.17,WUHU216HW,2013-10-08 03:47:00,
2013-10-07 20:49:00,52.2,-2.8,30.11,WNW,293,0.0,1.3,1,0.01,,,0.17,WUHU216HW,2013-10-08 03:49:00,
2013-10-07 20:50:00,52.2,-2.8,30.11,WNW,293,0.0,1.3,1,0.01,,,0.17,WUHU216HW,2013-10-08 03:50:00,
2013-10-07 20:52:00,52.2,-2.8,30.11,WNW,293,0.0,1.1,1,0.01,,,0.17,WUHU216HW,2013-10-08 03:52:00,
2013-10-07 20:53:00,52.2,-2.8,30.12,WNW,293,0.0,1.1,1,0.01,,,0.17,WUHU216HW,2013-10-08 03:53:00,
2013-10-07 20:55:00,52.2,-2.8,30.12,WNW,293,0.0,0.2,1,0.01,,,0.17,WUHU216HW,2013-10-08 03:55:00,
2013-10-07 20:56:00,52.2,-2.8,30.12,West,270,0.0,0.2,1,0.01,,,0.17,WUHU216HW,2013-10-08 03:56:00,
2013-10-07 20:58:00,52.2,-2.8,30.12,West,270,0.0,0.2,1,0.01,,,0.17,WUHU216HW,2013-10-08 03:58:00,
2013-10-07 20:59:00,52.2,-2.8,30.12,West,270,0.0,0.0,1,0.01,,,0.17,WUHU216HW,2013-10-08 03:59:00,
2013-10-07 21:01:00,52.2,-2.8,30.12,West,270,0.0,0.0,1,0.01,,,0.17,WUHU216HW,2013-10-08 04:01:00,
2013-10-07 21:02:00,52.2,-2.8,30.12,West,270,0.0,0.0,1,0.01,,,0.17,WUHU216HW,2013-10-08 04:02:00,
2013-10-07 21:04:00,52.2,-2.8,30.12,West,270,0.0,0.0,1,0.01,,,0.17,WUHU216HW,2013-10-08 04:04:00,
2013-10-07 21:05:00,52.2,-2.8,30.12,South,180,1.6,1.6,1,0.01,,,0.17,WUHU216HW,2013-10-08 04:05:00,
2013-10-07 21:07:00,52.2,-2.8,30.12,South,180,1.6,1.6,1,0.01,,,0.17,WUHU216HW,2013-10-08 04:07:00,
2013-10-07 21:08:00,52.2,-2.8,30.12,WSW,248,0.4,1.6,1,0.01,,,0.17,WUHU216HW,2013-10-08 04:08:00,
2013-10-07 21:10:00,52.2,-2.8,30.12,WSW,248,0.4,1.6,1,0.01,,,0.17,WUHU216HW,2013-10-08 04:10:00,
2013-10-07 21:11:00,52.2,-2.8,30.12,WSW,248,0.4,1.6,1,0.01,,,0.17,WUHU216HW,2013-10-08 04:11:00,
2013-10-07 21:13:00,52.2,-2.8,30.12,NW,315,2.5,3.4,1,0.01,,,0.17,WUHU216HW,2013-10-08 04:13:00,
2013-10-07 21:14:00,52.2,-2.8,30.12,NW,315,2.5,3.4,1,0.01,,,0.17,WUHU216HW,2013-10-08 04:14:00,
2013-10-07 21:16:00,52.2,-2.8,30.12,West,270,2.5,3.4,1,0.01,,,0.17,WUHU216HW,2013-10-08 04:16:00,
2013-10-07 21:17:00,52.2,-2.8,30.12,West,270,2.5,3.4,1,0.01,,,0.17,WUHU216HW,2013-10-08 04:17:00,
2013-10-07 21:19:00,52.2,-2.8,30.11,West,270,2.5,3.4,1,0.01,,,0.17,WUHU216HW,2013-10-08 04:19:00,
2013-10-07 21:20:00,52.0,-2.9,30.11,SSW,203,1.8,3.4,1,0.01,,,0.17,WUHU216HW,2013-10-08 04:20:00,
2013-10-07 21:22:00,52.0,-2.9,30.12,SSW,203,1.8,3.4,1,0.01,,,0.17,WUHU216HW,2013-10-08 04:22:00,
2013-10-07 21:23:00,52.0,-2.9,30.11,NNW,338,0.7,2.5,1,0.01,,,0.17,WUHU216HW,2013-10-08 04:23:00,
2013-10-07 21:25:00,52.0,-2.9,30.12,NW,315,1.1,2.5,1,0.01,,,0.17,WUHU216HW,2013-10-08 04:25:00,
2013-10-07 21:26:00,52.0,-2.9,30.12,NW,315,1.1,2.5,1,0.01,,,0.17,WUHU216HW,2013-10-08 04:26:00,
2013-10-07 21:28:00,52.0,-2.9,30.12,SE,135,1.8,2.5,1,0.01,,,0.17,WUHU216HW,2013-10-08 04:28:00,
2013-10-07 21:29:00,51.8,-3.1,30.12,North,0,1.1,2.5,1,0.01,,,0.17,WUHU216HW,2013-10-08 04:29:00,
2013-10-07 21:31:00,51.8,-3.1,30.12,North,0,1.1,1.8,1,0.01,,,0.17,WUHU216HW,2013-10-08 04:31:00,
2013-10-07 21:32:00,51.8,-3.1,30.12,South,180,2.2,2.2,1,0.00,,,0.17,WUHU216HW,2013-10-08 04:32:00,
2013-10-07 21:34:00,51.8,-3.1,30.12,North,0,2.5,2.5,1,0.00,,,0.17,WUHU216HW,2013-10-08 04:34:00,
2013-10-07 21:35:00,51.8,-3.1,30.12,North,0,2.5,2.5,1,0.00,,,0.17,WUHU216HW,2013-10-08 04:35:00,
2013-10-07 21:37:00,51.8,-3.1,30.11,WNW,293,2.2,2.5,1,0.00,,,0.17,WUHU216HW,2013-10-08 04:37:00,
2013-10-07 21:38:00,51.8,-3.1,30.12,WNW,293,2.2,2.5,1,0.00,,,0.17,WUHU216HW,2013-10-08 04:38:00,
2013-10-07 21:40:00,51.8,-3.1,30.12,WNW,293,2.2,2.5,1,0.00,,,0.17,WUHU216HW,2013-10-08 04:40:00,
2013-10-07 21:41:00,51.7,-3.2,30.11,SSW,203,1.1,2.5,1,0.00,,,0.17,WUHU216HW,2013-10-08 04:41:00,
2013-10-07 21:43:00,51.7,-3.2,30.12,SSW,203,1.1,2.5,1,0.00,,,0.17,WUHU216HW,2013-10-08 04:43:00,
2013-10-07 21:44:00,51.5,-3.3,30.11,SSW,203,2.5,2.5,1,0.00,,,0.17,WUHU216HW,2013-10-08 04:44:00,
2013-10-07 21:46:00,51.5,-3.3,30.12,SSW,203,2.5,2.5,1,0.00,,,0.17,WUHU216HW,2013-10-08 04:46:00,
2013-10-07 21:47:00,51.5,-3.3,30.12,SSW,203,2.5,2.5,1,0.00,,,0.17,WUHU216HW,2013-10-08 04:47:00,
2013-10-07 21:49:00,51.5,-3.3,30.11,WSW,248,2.7,2.7,1,0.00,,,0.17,WUHU216HW,2013-10-08 04:49:00,
2013-10-07 21:50:00,51.5,-3.3,30.12,WSW,248,2.7,2.7,1,0.00,,,0.17,WUHU216HW,2013-10-08 04:50:00,
2013-10-07 21:52:00,51.5,-3.3,30.11,South,180,4.9,4.9,1,0.00,,,0.17,WUHU216HW,2013-10-08 04:52:00,
2013-10-07 22:03:00,51.5,-3.3,30.12,South,180,3.6,4.9,1,0.00,,,0.17,WUHU216HW,2013-10-08 05:03:00,
2013-10-07 22:08:00,51.5,-3.3,30.12,SE,135,2.5,4.9,1,0.00,,,0.17,WUHU216HW,2013-10-08 05:08:00,
2013-10-07 22:13:00,51.5,-3.3,30.11,West,270,0.7,3.6,1,0.00,,,0.17,WUHU216HW,2013-10-08 05:13:00,
2013-10-07 22:18:00,51.5,-3.3,30.12,West,270,0.7,2.5,1,0.00,,,0.17,WUHU216HW,2013-10-08 05:18:00,
2013-10-07 22:23:00,51.5,-3.3,30.12,West,270,0.7,2.0,1,0.00,,,0.17,WUHU216HW,2013-10-08 05:23:00,
2013-10-07 22:28:00,51.5,-3.3,30.11,SSW,203,7.2,7.2,1,0.00,,,0.17,WUHU216HW,2013-10-08 05:28:00,
2013-10-07 22:33:00,51.8,-3.1,30.12,NNW,338,3.1,7.2,1,0.00,,,0.17,WUHU216HW,2013-10-08 05:33:00,
2013-10-07 22:38:00,51.8,-3.1,30.12,SW,225,1.6,7.2,1,0.00,,,0.17,WUHU216HW,2013-10-08 05:38:00,
2013-10-07 22:43:00,51.7,-3.2,30.11,North,0,1.8,3.1,1,0.00,,,0.17,WUHU216HW,2013-10-08 05:43:00,
2013-10-07 22:48:00,51.5,-3.3,30.12,South,180,2.9,4.0,1,0.00,,,0.17,WUHU216HW,2013-10-08 05:48:00,
2013-10-07 22:53:00,51.5,-3.3,30.12,SSE,158,1.8,4.0,1,0.00,,,0.17,WUHU216HW,2013-10-08 05:53:00,
2013-10-07 22:58:00,51.7,-3.2,30.12,West,270,5.4,5.4,1,0.00,,,0.17,WUHU216HW,2013-10-08 05:58:00,
2013-10-07 23:03:00,51.7,-3.2,30.12,SSW,203,0.7,5.4,1,0.00,,,0.17,WUHU216HW,2013-10-08 06:03:00,
2013-10-07 23:08:00,51.1,-3.6,30.12,SE,135,3.1,5.4,1,0.00,,,0.17,WUHU216HW,2013-10-08 06:08:00,
2013-10-07 23:13:00,50.4,-4.2,30.12,WSW,248,1.6,3.1,1,0.00,,,0.17,WUHU216HW,2013-10-08 06:13:00,
2013-10-07 23:18:00,50.2,-4.3,30.12,SSW,203,1.8,3.1,1,0.00,,,0.17,WUHU216HW,2013-10-08 06:18:00,
2013-10-07 23:23:00,50.0,-4.5,30.12,SSW,203,1.1,1.8,1,0.00,,,0.17,WUHU216HW,2013-10-08 06:23:00,
2013-10-07 23:28:00,50.0,-4.5,30.12,SSW,203,1.1,2.0,1,0.00,,,0.17,WUHU216HW,2013-10-08 06:28:00,
2013-10-07 23:33:00,50.0,-4.5,30.12,SSE,158,5.6,5.6,1,0.00,,,0.17,WUHU216HW,2013-10-08 06:33:00,
2013-10-07 23:38:00,50.0,-4.5,30.12,SE,135,1.6,5.6,1,0.00,,,0.17,WUHU216HW,2013-10-08 06:38:00,
2013-10-07 23:43:00,49.9,-4.6,30.12,SSW,203,2.2,2.2,1,0.00,,,0.17,WUHU216HW,2013-10-08 06:43:00,
2013-10-07 23:48:00,49.9,-4.6,30.12,WNW,293,0.4,2.2,1,0.00,,,0.17,WUHU216HW,2013-10-08 06:48:00,
2013-10-07 23:53:00,49.9,-4.6,30.12,SSE,158,1.6,2.2,1,0.00,,,0.17,WUHU216HW,2013-10-08 06:53:00,
2013-10-07 23:58:00,49.9,-4.6,30.12,SSE,158,2.2,2.2,1,0.00,,,0.17,WUHU216HW,2013-10-08 06:58:00,